NZQN/ZQN METAR and TAF weather

Enter ICAO airport designator
Station Type Date Time Source
NZQN METAR UTC NOAA

Error!


Station Type Date Time Source
NZQN Decoded METAR UTC NOAA

Error!

Station Type Date Time Source
NZQN TAF 2021/06/23 18:10 UTC NOAA

TAF NZQN 231710Z 2318/2412 04005KT 9999 FEW060
FM240200 26010KT 9999 -RA BKN060
BECMG 2405/2407 04005KT
TEMPO 2410/2412 6000 SHRA

Example: see airport list